Time;durP1;ratioP1;P1;durP2;ratioP2;P2;SDS_P1;SDS_P2;PMS_P1;PMS_P2;Temp;Humidity;BMP_temperature;BMP_pressure;BME280_temperature;BME280_humidity;BME280_pressure;Samples;Min_cycle;Max_cycle;Signal;HPM_P1;HPM_P2
2021/10/18 00:02:10;;;;;;;26.88;25.30;;;;;;;;;;4980688;28;20121;-52
2021/10/18 00:04:37;;;;;;;28.13;26.05;;;;;;;;;;4991138;28;20459;-52
2021/10/18 00:07:03;;;;;;;30.10;27.92;;;;;;;;;;4992293;28;20423;-51
2021/10/18 00:09:30;;;;;;;27.38;25.77;;;;;;;;;;4988776;28;20089;-52
2021/10/18 00:11:57;;;;;;;26.77;24.77;;;;;;;;;;4991993;28;20050;-51
2021/10/18 00:14:24;;;;;;;29.33;27.55;;;;;;;;;;4980901;28;20046;-53
2021/10/18 00:16:51;;;;;;;30.38;28.33;;;;;;;;;;4992265;28;20038;-52
2021/10/18 00:19:17;;;;;;;24.77;23.20;;;;;;;;;;4987590;28;20105;-52
2021/10/18 00:21:44;;;;;;;21.55;20.30;;;;;;;;;;4990382;28;20043;-50
2021/10/18 00:24:11;;;;;;;26.13;25.02;;;;;;;;;;4984138;28;20039;-52
2021/10/18 00:26:37;;;;;;;24.52;23.52;;;;;;;;;;4986439;28;20526;-53
2021/10/18 00:29:04;;;;;;;23.45;21.98;;;;;;;;;;4982835;28;20043;-52
2021/10/18 00:31:31;;;;;;;23.65;22.15;;;;;;;;;;4988652;28;20484;-52
2021/10/18 00:33:58;;;;;;;24.15;22.95;;;;;;;;;;4990278;28;20046;-52
2021/10/18 00:36:24;;;;;;;24.35;23.25;;;;;;;;;;4979867;28;20067;-52
2021/10/18 00:38:51;;;;;;;23.80;22.58;;;;;;;;;;4981801;28;20046;-53
2021/10/18 00:41:19;;;;;;;22.10;21.02;;;;;;;;;;4991572;28;20526;-51
2021/10/18 00:43:47;;;;;;;25.35;24.27;;;;;;;;;;4988164;28;20267;-52
2021/10/18 00:46:17;;;;;;;22.70;21.83;;;;;;;;;;4982472;28;20042;-52
2021/10/18 00:48:45;;;;;;;21.83;21.13;;;;;;;;;;4990576;28;20070;-52
2021/10/18 00:51:12;;;;;;;23.75;22.65;;;;;;;;;;4990480;28;20080;-53
2021/10/18 00:53:39;;;;;;;22.13;21.05;;;;;;;;;;4973707;28;20047;-53
2021/10/18 00:56:06;;;;;;;23.02;22.13;;;;;;;;;;4984378;28;20097;-52
2021/10/18 00:58:33;;;;;;;23.92;22.80;;;;;;;;;;4985626;28;20030;-53
2021/10/18 01:01:00;;;;;;;21.40;20.70;;;;;;;;;;4990981;28;20089;-52
2021/10/18 01:03:27;;;;;;;24.67;23.88;;;;;;;;;;4989851;28;20526;-51
2021/10/18 01:05:54;;;;;;;23.33;22.42;;;;;;;;;;4990536;28;20042;-52
2021/10/18 01:08:21;;;;;;;21.98;20.80;;;;;;;;;;4989528;28;20066;-51
2021/10/18 01:10:47;;;;;;;22.60;21.40;;;;;;;;;;4989134;28;20038;-52
2021/10/18 01:13:14;;;;;;;24.75;23.52;;;;;;;;;;4987431;28;20578;-51
2021/10/18 01:15:41;;;;;;;24.90;23.50;;;;;;;;;;4987438;28;20065;-52
2021/10/18 01:18:07;;;;;;;25.38;24.05;;;;;;;;;;4987404;28;20062;-52
2021/10/18 01:20:35;;;;;;;28.45;27.05;;;;;;;;;;4982692;28;20134;-52
2021/10/18 01:23:03;;;;;;;28.65;27.15;;;;;;;;;;4980014;28;20030;-51
2021/10/18 01:25:29;;;;;;;28.10;26.65;;;;;;;;;;4989468;28;20113;-51
2021/10/18 01:27:56;;;;;;;27.38;25.73;;;;;;;;;;4988997;28;20096;-51
2021/10/18 01:30:24;;;;;;;28.92;27.33;;;;;;;;;;4981258;28;20081;-51
2021/10/18 01:32:50;;;;;;;28.67;27.08;;;;;;;;;;4990054;28;20513;-51
2021/10/18 01:35:17;;;;;;;29.48;27.63;;;;;;;;;;4989960;28;20069;-50
2021/10/18 01:37:44;;;;;;;27.77;26.23;;;;;;;;;;4990854;28;20092;-51
2021/10/18 01:40:12;;;;;;;26.52;25.13;;;;;;;;;;4989411;28;20046;-52
2021/10/18 01:42:38;;;;;;;24.77;23.77;;;;;;;;;;4985858;28;20042;-51
2021/10/18 01:45:06;;;;;;;26.05;25.05;;;;;;;;;;4990265;28;20066;-51
2021/10/18 01:47:33;;;;;;;24.05;22.75;;;;;;;;;;4990830;28;20042;-51
2021/10/18 01:49:59;;;;;;;25.63;24.33;;;;;;;;;;4973095;28;20426;-52
2021/10/18 01:52:26;;;;;;;25.67;23.92;;;;;;;;;;4989651;28;20609;-52
2021/10/18 01:54:53;;;;;;;23.13;22.05;;;;;;;;;;4990844;28;20042;-52
2021/10/18 01:57:20;;;;;;;24.17;22.92;;;;;;;;;;4989912;28;20077;-53
2021/10/18 01:59:46;;;;;;;24.40;23.63;;;;;;;;;;4988016;28;20039;-51
2021/10/18 02:02:13;;;;;;;20.73;20.10;;;;;;;;;;4977435;28;20050;-51
2021/10/18 02:04:54;;;;;;;22.17;21.55;;;;;;;;;;4980311;28;20043;-52
2021/10/18 02:07:20;;;;;;;22.67;21.80;;;;;;;;;;4979226;28;20034;-52
2021/10/18 02:09:47;;;;;;;26.05;24.73;;;;;;;;;;4990506;28;20042;-51
2021/10/18 02:12:14;;;;;;;23.42;22.63;;;;;;;;;;4988238;28;20054;-52
2021/10/18 02:14:41;;;;;;;24.10;23.23;;;;;;;;;;4975890;28;20351;-52
2021/10/18 02:17:08;;;;;;;21.63;20.55;;;;;;;;;;4989233;28;20042;-52
2021/10/18 02:19:35;;;;;;;23.33;22.45;;;;;;;;;;4986477;28;20054;-52
2021/10/18 02:22:01;;;;;;;23.30;22.50;;;;;;;;;;4989197;28;20411;-52
2021/10/18 02:24:28;;;;;;;26.75;25.63;;;;;;;;;;4987854;28;20042;-52
2021/10/18 02:26:55;;;;;;;25.33;24.25;;;;;;;;;;4989657;28;20516;-53
2021/10/18 02:29:21;;;;;;;24.88;23.98;;;;;;;;;;4991697;28;20042;-52
2021/10/18 02:31:48;;;;;;;23.65;22.80;;;;;;;;;;4991293;28;20038;-52
2021/10/18 02:34:15;;;;;;;24.67;23.67;;;;;;;;;;4994296;28;20030;-52
2021/10/18 02:36:42;;;;;;;25.10;24.10;;;;;;;;;;4987361;28;20046;-51
2021/10/18 02:39:08;;;;;;;25.92;24.85;;;;;;;;;;4979712;28;20037;-52
2021/10/18 02:41:35;;;;;;;26.80;25.23;;;;;;;;;;4982043;28;20384;-52
2021/10/18 02:44:02;;;;;;;22.13;21.38;;;;;;;;;;4988251;28;20073;-52
2021/10/18 02:46:29;;;;;;;24.45;23.52;;;;;;;;;;4982900;28;20042;-51
2021/10/18 02:48:55;;;;;;;22.52;21.80;;;;;;;;;;4992048;28;20030;-53
2021/10/18 02:51:22;;;;;;;26.55;25.35;;;;;;;;;;4993300;28;20026;-52
2021/10/18 02:53:49;;;;;;;23.80;22.98;;;;;;;;;;4992753;28;20546;-52
2021/10/18 02:56:16;;;;;;;26.98;25.85;;;;;;;;;;4991812;28;20042;-53
2021/10/18 02:58:42;;;;;;;23.05;22.15;;;;;;;;;;4992547;28;20109;-52
2021/10/18 03:01:09;;;;;;;23.25;22.30;;;;;;;;;;4992728;28;20040;-52
2021/10/18 03:03:36;;;;;;;26.33;25.45;;;;;;;;;;4981711;28;20054;-52
2021/10/18 03:06:03;;;;;;;26.10;25.20;;;;;;;;;;4992813;28;20046;-51
2021/10/18 03:08:29;;;;;;;26.83;25.75;;;;;;;;;;4991312;28;20046;-50
2021/10/18 03:10:56;;;;;;;24.45;23.42;;;;;;;;;;4992272;28;20035;-50
2021/10/18 03:13:23;;;;;;;24.77;23.95;;;;;;;;;;4987140;28;20046;-53
2021/10/18 03:15:51;;;;;;;23.10;22.20;;;;;;;;;;4992674;28;20046;-53
2021/10/18 03:18:17;;;;;;;24.40;23.63;;;;;;;;;;4984476;28;21717;-51
2021/10/18 03:20:44;;;;;;;24.63;23.48;;;;;;;;;;4991075;28;20041;-52
2021/10/18 03:23:11;;;;;;;25.40;24.50;;;;;;;;;;4990761;28;20031;-53
2021/10/18 03:25:38;;;;;;;23.13;22.05;;;;;;;;;;4985009;28;20070;-52
2021/10/18 03:28:04;;;;;;;21.17;20.50;;;;;;;;;;4982805;28;20038;-52
2021/10/18 03:30:32;;;;;;;24.85;23.70;;;;;;;;;;4987918;28;20043;-52
2021/10/18 03:32:59;;;;;;;24.33;23.52;;;;;;;;;;4990599;28;20051;-53
2021/10/18 03:35:25;;;;;;;28.00;26.83;;;;;;;;;;4991636;28;20116;-52
2021/10/18 03:37:52;;;;;;;24.95;24.13;;;;;;;;;;4983715;28;20054;-52
2021/10/18 03:40:19;;;;;;;24.65;23.75;;;;;;;;;;4982994;28;20045;-52
2021/10/18 03:42:46;;;;;;;27.60;26.50;;;;;;;;;;4990487;28;20427;-52
2021/10/18 03:45:13;;;;;;;26.20;25.35;;;;;;;;;;4992161;28;20128;-52
2021/10/18 03:47:40;;;;;;;25.48;24.63;;;;;;;;;;4992082;28;20120;-52
2021/10/18 03:50:07;;;;;;;24.33;23.48;;;;;;;;;;4981852;28;20039;-50
2021/10/18 03:52:34;;;;;;;22.88;21.98;;;;;;;;;;4984814;28;20314;-51
2021/10/18 03:55:00;;;;;;;24.60;23.85;;;;;;;;;;4992395;28;20154;-52
2021/10/18 03:57:27;;;;;;;27.30;26.40;;;;;;;;;;4985319;28;20043;-52
2021/10/18 03:59:54;;;;;;;24.73;23.85;;;;;;;;;;4983161;28;20443;-52
2021/10/18 04:02:21;;;;;;;22.20;21.40;;;;;;;;;;4980194;28;20629;-52
2021/10/18 04:04:48;;;;;;;23.08;22.30;;;;;;;;;;4984870;28;20062;-50
2021/10/18 04:07:14;;;;;;;22.10;21.60;;;;;;;;;;4990296;28;20058;-51
2021/10/18 04:09:41;;;;;;;21.50;21.00;;;;;;;;;;4990002;28;20069;-51
2021/10/18 04:12:08;;;;;;;22.58;21.98;;;;;;;;;;4991643;28;20038;-53
2021/10/18 04:14:35;;;;;;;25.73;24.83;;;;;;;;;;4979472;28;20039;-52
2021/10/18 04:17:01;;;;;;;23.30;22.63;;;;;;;;;;4990934;28;20507;-53
2021/10/18 04:19:28;;;;;;;23.17;22.45;;;;;;;;;;4984594;28;20050;-53
2021/10/18 04:21:55;;;;;;;25.70;24.75;;;;;;;;;;4991242;28;20076;-51
2021/10/18 04:24:22;;;;;;;24.35;23.73;;;;;;;;;;4990894;28;20829;-52
2021/10/18 04:26:48;;;;;;;27.20;26.10;;;;;;;;;;4977881;28;20042;-53
2021/10/18 04:29:15;;;;;;;28.02;26.67;;;;;;;;;;4985362;28;20043;-52
2021/10/18 04:31:42;;;;;;;28.08;26.77;;;;;;;;;;4980110;28;20680;-52
2021/10/18 04:34:09;;;;;;;25.73;24.77;;;;;;;;;;4984652;28;20069;-53
2021/10/18 04:36:35;;;;;;;21.48;21.00;;;;;;;;;;4989893;28;20057;-53
2021/10/18 04:39:03;;;;;;;24.13;23.17;;;;;;;;;;4991776;28;20558;-52
2021/10/18 04:41:29;;;;;;;23.90;22.90;;;;;;;;;;4986893;28;20072;-53
2021/10/18 04:43:56;;;;;;;27.13;25.95;;;;;;;;;;4981921;28;20043;-52
2021/10/18 04:46:23;;;;;;;28.15;25.92;;;;;;;;;;4991826;28;20077;-51
2021/10/18 04:48:49;;;;;;;25.98;24.55;;;;;;;;;;4988438;28;20046;-51
2021/10/18 04:51:16;;;;;;;23.98;23.20;;;;;;;;;;4984438;28;20088;-52
2021/10/18 04:53:43;;;;;;;26.00;25.10;;;;;;;;;;4987057;28;20141;-51
2021/10/18 04:56:10;;;;;;;26.73;25.90;;;;;;;;;;4989402;28;20108;-52
2021/10/18 04:58:36;;;;;;;23.23;22.65;;;;;;;;;;4990899;28;20038;-52
2021/10/18 05:01:03;;;;;;;24.15;22.45;;;;;;;;;;4987161;28;20066;-53
2021/10/18 05:03:30;;;;;;;23.92;22.85;;;;;;;;;;4990576;28;20100;-53
2021/10/18 05:05:57;;;;;;;26.08;24.88;;;;;;;;;;4988636;28;20500;-52
2021/10/18 05:08:29;;;;;;;26.65;25.60;;;;;;;;;;4989848;28;20046;-52
2021/10/18 05:10:56;;;;;;;28.50;27.08;;;;;;;;;;4978496;28;20042;-53
2021/10/18 05:13:24;;;;;;;33.03;30.70;;;;;;;;;;4985153;28;20042;-53
2021/10/18 05:15:52;;;;;;;29.05;27.52;;;;;;;;;;4976437;28;20042;-53
2021/10/18 05:18:19;;;;;;;53.53;49.10;;;;;;;;;;4989268;28;20053;-53
2021/10/18 05:20:48;;;;;;;33.88;31.92;;;;;;;;;;4990423;28;20137;-52
2021/10/18 05:23:15;;;;;;;31.02;27.75;;;;;;;;;;4989930;28;20042;-53
2021/10/18 05:25:43;;;;;;;33.15;31.25;;;;;;;;;;4986925;28;20039;-54
2021/10/18 05:28:09;;;;;;;36.55;34.20;;;;;;;;;;4972556;28;20050;-53
2021/10/18 05:30:36;;;;;;;29.77;28.17;;;;;;;;;;4991455;28;20089;-53
2021/10/18 05:33:03;;;;;;;26.77;25.63;;;;;;;;;;4989712;28;20442;-54
2021/10/18 05:35:30;;;;;;;27.83;26.52;;;;;;;;;;4975345;28;20035;-54
2021/10/18 05:37:57;;;;;;;26.42;25.02;;;;;;;;;;4985018;28;20038;-54
2021/10/18 05:40:24;;;;;;;25.27;24.33;;;;;;;;;;4988758;28;20041;-53
2021/10/18 05:42:51;;;;;;;25.98;25.08;;;;;;;;;;4988310;28;20046;-54
2021/10/18 05:45:21;;;;;;;26.88;26.00;;;;;;;;;;4989364;28;20042;-52
2021/10/18 05:47:51;;;;;;;24.23;22.95;;;;;;;;;;4978189;28;20387;-54
2021/10/18 05:50:18;;;;;;;24.77;23.98;;;;;;;;;;4984870;28;20043;-54
2021/10/18 05:52:45;;;;;;;25.85;25.00;;;;;;;;;;4975335;28;20085;-54
2021/10/18 05:55:12;;;;;;;23.33;22.63;;;;;;;;;;4978276;28;20462;-53
2021/10/18 05:57:49;;;;;;;23.42;22.83;;;;;;;;;;4982009;28;20031;-53
2021/10/18 06:00:17;;;;;;;26.73;25.38;;;;;;;;;;4989137;28;20114;-54
2021/10/18 06:02:44;;;;;;;23.50;22.63;;;;;;;;;;4988092;28;20091;-53
2021/10/18 06:05:11;;;;;;;24.48;23.15;;;;;;;;;;4988617;28;20532;-53
2021/10/18 06:07:38;;;;;;;27.27;25.73;;;;;;;;;;4990130;28;20100;-53
2021/10/18 06:10:05;;;;;;;26.17;24.25;;;;;;;;;;4990250;28;20087;-53
2021/10/18 06:12:32;;;;;;;24.63;23.77;;;;;;;;;;4988879;28;20098;-53
2021/10/18 06:14:59;;;;;;;25.65;24.58;;;;;;;;;;4981382;28;20082;-53
2021/10/18 06:17:25;;;;;;;32.22;30.52;;;;;;;;;;4982634;28;20427;-54
2021/10/18 06:19:52;;;;;;;28.48;27.27;;;;;;;;;;4974669;28;20042;-54
2021/10/18 06:22:19;;;;;;;32.10;30.42;;;;;;;;;;4984566;28;20050;-53
2021/10/18 06:24:46;;;;;;;31.77;29.88;;;;;;;;;;4972643;28;20043;-54
2021/10/18 06:27:12;;;;;;;30.67;29.23;;;;;;;;;;4990546;28;20038;-51
2021/10/18 06:29:39;;;;;;;28.77;27.25;;;;;;;;;;4989041;28;20092;-54
2021/10/18 06:32:06;;;;;;;29.65;28.13;;;;;;;;;;4974569;28;20058;-52
2021/10/18 06:34:33;;;;;;;27.70;26.50;;;;;;;;;;4987441;28;20097;-53
2021/10/18 06:37:00;;;;;;;27.63;26.15;;;;;;;;;;4977071;28;20074;-54
2021/10/18 06:39:27;;;;;;;25.48;24.45;;;;;;;;;;4990505;28;20043;-54
2021/10/18 06:41:53;;;;;;;26.67;25.38;;;;;;;;;;4987471;28;20155;-55
2021/10/18 06:44:20;;;;;;;24.08;23.13;;;;;;;;;;4973063;28;20082;-54
2021/10/18 06:46:47;;;;;;;25.85;24.98;;;;;;;;;;4987297;28;20527;-54
2021/10/18 06:49:14;;;;;;;24.50;23.65;;;;;;;;;;4989524;28;20616;-56
2021/10/18 06:51:51;;;;;;;22.52;22.02;;;;;;;;;;4989059;28;20093;-55
2021/10/18 06:54:18;;;;;;;20.75;20.25;;;;;;;;;;4986838;28;20046;-55
2021/10/18 06:56:45;;;;;;;23.63;23.05;;;;;;;;;;4989101;28;20110;-55
2021/10/18 06:59:13;;;;;;;24.33;23.77;;;;;;;;;;4988405;28;20050;-56
2021/10/18 07:01:39;;;;;;;53.38;47.90;;;;;;;;;;4987523;28;20054;-55
2021/10/18 07:04:07;;;;;;;48.25;43.35;;;;;;;;;;4976885;28;20742;-56
2021/10/18 07:06:34;;;;;;;33.55;30.92;;;;;;;;;;4984590;28;20039;-56
2021/10/18 07:09:02;;;;;;;37.25;34.35;;;;;;;;;;4976643;28;20034;-56
2021/10/18 07:11:29;;;;;;;40.15;36.75;;;;;;;;;;4980975;28;20085;-56
2021/10/18 07:13:55;;;;;;;35.60;32.90;;;;;;;;;;4980001;28;20061;-56
2021/10/18 07:16:23;;;;;;;37.90;34.78;;;;;;;;;;4993246;28;20403;-56
2021/10/18 07:18:50;;;;;;;51.50;45.90;;;;;;;;;;4990333;28;20038;-56
2021/10/18 07:21:16;;;;;;;45.42;39.47;;;;;;;;;;4992822;28;20054;-57
2021/10/18 07:23:45;;;;;;;37.60;34.78;;;;;;;;;;4989848;28;20042;-56
2021/10/18 07:26:12;;;;;;;33.67;31.02;;;;;;;;;;4993343;28;20038;-56
2021/10/18 07:28:39;;;;;;;28.55;26.90;;;;;;;;;;4992750;28;20046;-56
2021/10/18 07:31:06;;;;;;;35.05;32.42;;;;;;;;;;4990848;28;20033;-56
2021/10/18 07:33:33;;;;;;;36.13;33.22;;;;;;;;;;4990088;28;20038;-55
2021/10/18 07:36:07;;;;;;;42.20;37.25;;;;;;;;;;4992066;28;20081;-56
2021/10/18 07:38:35;;;;;;;72.45;53.10;;;;;;;;;;4990120;28;20042;-56
2021/10/18 07:41:02;;;;;;;96.93;63.83;;;;;;;;;;4991263;28;20053;-56
2021/10/18 07:43:29;;;;;;;73.55;52.92;;;;;;;;;;4988802;28;20105;-55
2021/10/18 07:45:56;;;;;;;62.63;50.85;;;;;;;;;;4991644;28;20038;-56
2021/10/18 07:48:22;;;;;;;40.83;36.65;;;;;;;;;;4979677;28;20039;-56
2021/10/18 07:50:50;;;;;;;42.17;37.38;;;;;;;;;;4990314;28;20054;-56
2021/10/18 07:53:17;;;;;;;49.20;35.78;;;;;;;;;;4980843;28;20034;-55
2021/10/18 07:55:44;;;;;;;44.78;34.70;;;;;;;;;;4992032;28;20077;-56
2021/10/18 07:58:19;;;;;;;46.53;34.83;;;;;;;;;;4991706;28;20472;-58
2021/10/18 08:00:47;;;;;;;54.17;39.78;;;;;;;;;;4991761;28;20080;-56
2021/10/18 08:03:14;;;;;;;41.03;35.88;;;;;;;;;;4990640;28;20066;-56
2021/10/18 08:05:40;;;;;;;46.00;39.15;;;;;;;;;;4985996;28;20042;-56
2021/10/18 08:08:11;;;;;;;48.15;35.85;;;;;;;;;;4983605;28;20381;-56
2021/10/18 08:10:38;;;;;;;37.25;33.72;;;;;;;;;;4982353;28;20066;-55
2021/10/18 08:13:05;;;;;;;40.45;36.17;;;;;;;;;;5007339;28;20372;-55
2021/10/18 08:15:32;;;;;;;44.13;36.70;;;;;;;;;;4991258;28;20073;-56
2021/10/18 08:17:58;;;;;;;40.10;34.17;;;;;;;;;;4991571;28;20064;-56
2021/10/18 08:20:25;;;;;;;29.65;26.90;;;;;;;;;;4979903;28;20098;-56
2021/10/18 08:22:52;;;;;;;28.85;25.90;;;;;;;;;;4985942;28;20138;-55
2021/10/18 08:25:19;;;;;;;18.42;16.98;;;;;;;;;;4972586;28;20836;-56
2021/10/18 08:27:47;;;;;;;19.05;18.30;;;;;;;;;;4986066;28;20047;-56
2021/10/18 08:30:13;;;;;;;23.63;21.58;;;;;;;;;;4978906;28;20141;-54
2021/10/18 08:32:40;;;;;;;24.55;22.70;;;;;;;;;;4979921;28;20073;-55
2021/10/18 08:35:09;;;;;;;22.83;21.10;;;;;;;;;;4986369;28;20101;-55
2021/10/18 08:40:24;;;;;;;22.23;20.90;;;;;;;;;;4990750;28;20094;-55
2021/10/18 08:45:17;;;;;;;19.63;18.35;;;;;;;;;;4991728;28;20049;-55
2021/10/18 08:47:44;;;;;;;17.98;17.05;;;;;;;;;;4987710;28;20085;-55
2021/10/18 08:50:11;;;;;;;18.25;17.23;;;;;;;;;;4987483;28;20431;-55
2021/10/18 08:52:40;;;;;;;17.10;16.10;;;;;;;;;;4992624;28;20077;-55
2021/10/18 08:55:08;;;;;;;19.95;18.80;;;;;;;;;;4989278;28;20360;-56
2021/10/18 08:57:35;;;;;;;15.48;14.80;;;;;;;;;;4974449;28;20496;-55
2021/10/18 09:00:06;;;;;;;13.75;13.35;;;;;;;;;;4986413;28;20062;-55
2021/10/18 09:02:39;;;;;;;10.10;9.25;;;;;;;;;;4977151;28;20052;-55
2021/10/18 09:05:06;;;;;;;7.88;7.72;;;;;;;;;;4977664;28;20145;-55
2021/10/18 09:07:37;;;;;;;8.23;7.78;;;;;;;;;;4985187;28;20096;-54
2021/10/18 09:10:13;;;;;;;6.70;6.30;;;;;;;;;;4975769;28;20049;-55
2021/10/18 09:12:41;;;;;;;9.95;9.55;;;;;;;;;;4990935;28;20066;-55
2021/10/18 09:15:24;;;;;;;12.15;11.57;;;;;;;;;;4990490;28;20391;-54
2021/10/18 09:17:55;;;;;;;10.07;9.68;;;;;;;;;;4989937;28;20073;-55
2021/10/18 09:20:28;;;;;;;6.88;6.38;;;;;;;;;;4989461;28;20426;-54
2021/10/18 09:23:14;;;;;;;12.32;10.05;;;;;;;;;;4989271;28;20095;-55
2021/10/18 09:25:41;;;;;;;6.53;5.88;;;;;;;;;;4985687;28;20057;-54
2021/10/18 09:28:09;;;;;;;14.35;10.10;;;;;;;;;;4983798;28;20050;-55
2021/10/18 09:30:36;;;;;;;7.10;6.70;;;;;;;;;;4975366;28;20043;-54
2021/10/18 09:33:05;;;;;;;5.20;4.97;;;;;;;;;;4991021;28;20038;-55
2021/10/18 09:35:32;;;;;;;4.60;4.45;;;;;;;;;;4988780;28;20050;-54
2021/10/18 09:38:07;;;;;;;5.25;3.42;;;;;;;;;;4989056;28;20050;-54
2021/10/18 09:40:35;;;;;;;4.03;3.72;;;;;;;;;;5012488;28;20051;-55
2021/10/18 09:43:51;;;;;;;2.63;2.53;;;;;;;;;;4987808;28;20399;-55
2021/10/18 10:53:17;;;;;;;1.60;1.50;;;;;;;;;;4988543;28;20046;-55
2021/10/18 10:55:44;;;;;;;2.65;2.55;;;;;;;;;;4992418;28;20081;-55
2021/10/18 10:58:29;;;;;;;1.00;1.00;;;;;;;;;;4993457;28;20064;-55
2021/10/18 11:00:56;;;;;;;2.60;0.90;;;;;;;;;;4992413;28;20495;-55
2021/10/18 11:03:30;;;;;;;2.38;1.30;;;;;;;;;;4977159;28;20476;-56
2021/10/18 11:05:59;;;;;;;3.15;1.92;;;;;;;;;;4987924;28;20046;-54
2021/10/18 11:08:30;;;;;;;0.90;0.90;;;;;;;;;;5013871;28;20046;-56
2021/10/18 11:11:15;;;;;;;1.10;1.10;;;;;;;;;;4985059;28;20074;-55
2021/10/18 11:13:54;;;;;;;1.73;1.63;;;;;;;;;;4992287;28;20048;-56
2021/10/18 11:16:28;;;;;;;0.70;0.70;;;;;;;;;;4989826;28;20053;-55
2021/10/18 11:19:00;;;;;;;0.90;0.90;;;;;;;;;;4992469;28;20050;-55
2021/10/18 11:21:32;;;;;;;0.80;0.80;;;;;;;;;;4989647;28;20088;-55
2021/10/18 11:24:00;;;;;;;0.80;0.80;;;;;;;;;;4990692;28;20046;-55
2021/10/18 11:26:29;;;;;;;0.70;0.70;;;;;;;;;;4989968;28;20395;-55
2021/10/18 11:28:57;;;;;;;0.60;0.60;;;;;;;;;;4991488;28;20092;-55
2021/10/18 11:31:27;;;;;;;1.40;0.60;;;;;;;;;;4993820;28;20372;-56
2021/10/18 11:34:01;;;;;;;2.58;0.65;;;;;;;;;;4989690;28;20375;-54
2021/10/18 11:36:28;;;;;;;0.60;0.60;;;;;;;;;;4988799;28;20038;-55
2021/10/18 11:39:07;;;;;;;2.67;0.60;;;;;;;;;;4990246;28;20088;-55
2021/10/18 11:41:52;;;;;;;0.70;0.70;;;;;;;;;;4989932;28;20050;-55
2021/10/18 11:44:19;;;;;;;0.70;0.70;;;;;;;;;;4992830;28;20129;-56
2021/10/18 11:46:45;;;;;;;0.63;0.63;;;;;;;;;;4988336;28;20042;-54
2021/10/18 11:49:12;;;;;;;2.03;0.85;;;;;;;;;;4984253;28;20178;-55
2021/10/18 11:51:42;;;;;;;0.85;0.80;;;;;;;;;;4986297;28;20066;-55
2021/10/18 11:54:09;;;;;;;0.70;0.70;;;;;;;;;;4984310;28;20034;-54
2021/10/18 11:56:35;;;;;;;1.00;0.70;;;;;;;;;;4991745;28;20077;-55
2021/10/18 11:59:05;;;;;;;0.60;0.60;;;;;;;;;;4986349;28;20125;-54
2021/10/18 12:01:34;;;;;;;0.70;0.70;;;;;;;;;;4984768;28;20038;-55
2021/10/18 12:04:02;;;;;;;2.55;0.70;;;;;;;;;;4978534;28;20118;-55
2021/10/18 12:06:28;;;;;;;0.60;0.60;;;;;;;;;;4987227;28;20035;-55
2021/10/18 12:08:56;;;;;;;0.60;0.60;;;;;;;;;;4988776;28;20034;-55
2021/10/18 12:11:25;;;;;;;0.60;0.60;;;;;;;;;;4983303;28;20527;-55
2021/10/18 12:13:52;;;;;;;0.60;0.60;;;;;;;;;;4986814;28;20533;-55
2021/10/18 12:16:20;;;;;;;3.80;0.60;;;;;;;;;;4990325;28;20121;-56
2021/10/18 12:18:50;;;;;;;0.70;0.70;;;;;;;;;;4985522;28;20415;-55
2021/10/18 12:21:25;;;;;;;0.50;0.50;;;;;;;;;;4989364;28;20031;-55
2021/10/18 12:23:59;;;;;;;0.60;0.60;;;;;;;;;;4983657;28;20094;-55
2021/10/18 12:26:30;;;;;;;0.70;0.70;;;;;;;;;;4983191;28;20446;-55
2021/10/18 12:29:03;;;;;;;0.60;0.60;;;;;;;;;;4979697;28;20439;-55
2021/10/18 12:31:30;;;;;;;;;;;;;;;;;;4985424;28;20039;-56
2021/10/18 12:34:03;;;;;;;1.27;0.60;;;;;;;;;;4983066;28;20004;-56
2021/10/18 12:36:30;;;;;;;0.60;0.60;;;;;;;;;;4988622;28;20038;-44
2021/10/18 12:38:57;;;;;;;0.60;0.60;;;;;;;;;;4991023;28;20077;-44
2021/10/18 12:41:24;;;;;;;0.70;0.70;;;;;;;;;;4988929;28;20046;-44
2021/10/18 12:43:50;;;;;;;8.32;7.63;;;;;;;;;;4983439;28;20121;-47
2021/10/18 12:46:22;;;;;;;0.90;0.90;;;;;;;;;;4981794;28;20065;-45
2021/10/18 12:48:54;;;;;;;0.82;0.82;;;;;;;;;;4983508;28;20077;-45
2021/10/18 12:51:41;;;;;;;1.20;1.20;;;;;;;;;;4987904;28;20437;-46
2021/10/18 12:54:22;;;;;;;1.30;1.08;;;;;;;;;;4986589;28;20037;-44
2021/10/18 12:57:07;;;;;;;0.70;0.70;;;;;;;;;;4973791;28;20051;-46
2021/10/18 12:59:36;;;;;;;0.75;0.50;;;;;;;;;;4972560;28;20049;-43
2021/10/18 13:02:19;;;;;;;0.70;0.70;;;;;;;;;;4990904;28;20030;-44
2021/10/18 13:04:58;;;;;;;0.60;0.60;;;;;;;;;;4982265;28;20065;-45
2021/10/18 13:07:25;;;;;;;0.70;0.70;;;;;;;;;;4989085;28;20034;-44
2021/10/18 13:09:52;;;;;;;1.98;1.00;;;;;;;;;;4989175;28;20046;-45
2021/10/18 13:12:19;;;;;;;0.95;0.90;;;;;;;;;;4983189;28;20563;-45
2021/10/18 13:14:46;;;;;;;0.80;0.80;;;;;;;;;;4980188;28;20426;-44
2021/10/18 13:17:13;;;;;;;0.60;0.60;;;;;;;;;;4977163;28;20098;-46
2021/10/18 13:19:39;;;;;;;0.60;0.60;;;;;;;;;;4984938;28;20127;-44
2021/10/18 13:22:06;;;;;;;0.60;0.60;;;;;;;;;;4985785;28;20069;-44
2021/10/18 13:24:33;;;;;;;0.60;0.60;;;;;;;;;;4981875;28;20047;-44
2021/10/18 13:27:01;;;;;;;0.68;0.60;;;;;;;;;;4980894;28;20080;-44
2021/10/18 13:29:28;;;;;;;0.60;0.60;;;;;;;;;;4990220;28;20076;-44
2021/10/18 13:31:55;;;;;;;0.70;0.70;;;;;;;;;;4989366;28;20044;-45
2021/10/18 13:34:22;;;;;;;0.63;0.63;;;;;;;;;;4989140;28;20113;-46
2021/10/18 13:36:49;;;;;;;0.52;0.52;;;;;;;;;;4981232;28;20162;-45
2021/10/18 13:39:15;;;;;;;0.60;0.60;;;;;;;;;;4981820;28;20044;-45
2021/10/18 13:41:55;;;;;;;1.15;0.68;;;;;;;;;;4973234;28;20546;-43
2021/10/18 13:44:21;;;;;;;1.08;0.50;;;;;;;;;;4988648;28;20121;-45
2021/10/18 13:46:48;;;;;;;0.50;0.50;;;;;;;;;;4988693;28;20031;-44
2021/10/18 13:49:15;;;;;;;0.52;0.52;;;;;;;;;;4988208;28;20035;-48
2021/10/18 13:51:42;;;;;;;0.60;0.60;;;;;;;;;;4983703;28;20053;-43
2021/10/18 13:54:09;;;;;;;0.52;0.52;;;;;;;;;;4985855;28;20089;-45
2021/10/18 13:56:41;;;;;;;0.70;0.70;;;;;;;;;;4984311;28;20078;-45
2021/10/18 13:59:08;;;;;;;1.45;0.60;;;;;;;;;;4979829;28;20042;-44
2021/10/18 14:01:35;;;;;;;0.60;0.60;;;;;;;;;;4976781;28;20101;-45
2021/10/18 14:04:03;;;;;;;1.63;0.50;;;;;;;;;;4986428;28;20042;-43
2021/10/18 14:06:30;;;;;;;0.50;0.50;;;;;;;;;;4980794;28;20042;-45
2021/10/18 14:08:57;;;;;;;0.50;0.50;;;;;;;;;;4985041;28;20041;-44
2021/10/18 14:11:23;;;;;;;23.70;16.48;;;;;;;;;;4980750;28;20116;-44
2021/10/18 14:13:50;;;;;;;1.20;1.10;;;;;;;;;;4974417;28;20043;-45
2021/10/18 14:16:17;;;;;;;0.60;0.60;;;;;;;;;;4984531;28;20038;-46
2021/10/18 14:18:44;;;;;;;0.70;0.70;;;;;;;;;;4974781;28;20067;-46
2021/10/18 14:21:11;;;;;;;0.50;0.50;;;;;;;;;;4990007;28;20054;-46
2021/10/18 14:23:38;;;;;;;1.13;0.60;;;;;;;;;;4989842;28;20042;-43
2021/10/18 14:26:05;;;;;;;0.50;0.50;;;;;;;;;;4988662;28;20042;-45
2021/10/18 14:28:32;;;;;;;0.52;0.52;;;;;;;;;;4985132;28;20143;-43
2021/10/18 14:30:59;;;;;;;0.68;0.68;;;;;;;;;;4974197;28;20046;-46
2021/10/18 14:33:26;;;;;;;0.60;0.60;;;;;;;;;;4980420;28;20121;-43
2021/10/18 14:35:53;;;;;;;2.15;2.05;;;;;;;;;;4981774;28;20045;-44
2021/10/18 14:38:20;;;;;;;0.70;0.70;;;;;;;;;;4978048;28;20082;-44
2021/10/18 14:40:48;;;;;;;0.60;0.60;;;;;;;;;;4981519;28;20046;-45
2021/10/18 14:43:14;;;;;;;0.60;0.60;;;;;;;;;;4975482;28;20058;-44
2021/10/18 14:45:41;;;;;;;1.48;0.60;;;;;;;;;;4990521;28;20125;-43
2021/10/18 14:48:08;;;;;;;0.60;0.60;;;;;;;;;;4989044;28;20089;-46
2021/10/18 14:50:35;;;;;;;0.60;0.60;;;;;;;;;;4989489;28;20045;-45
2021/10/18 14:53:01;;;;;;;0.70;0.70;;;;;;;;;;4984759;28;20034;-45
2021/10/18 14:55:28;;;;;;;0.60;0.60;;;;;;;;;;4987074;28;20066;-44
2021/10/18 14:57:55;;;;;;;0.60;0.60;;;;;;;;;;4976197;28;20051;-44
2021/10/18 15:00:22;;;;;;;0.70;0.70;;;;;;;;;;4984448;28;20497;-44
2021/10/18 15:02:49;;;;;;;0.70;0.70;;;;;;;;;;4972189;28;20039;-48
2021/10/18 15:05:16;;;;;;;0.60;0.60;;;;;;;;;;4990330;28;20439;-45
2021/10/18 15:07:45;;;;;;;0.68;0.68;;;;;;;;;;4989356;28;20062;-43
2021/10/18 15:10:12;;;;;;;0.60;0.60;;;;;;;;;;4985152;28;20046;-42
2021/10/18 15:12:39;;;;;;;0.60;0.60;;;;;;;;;;4986830;28;20047;-44
2021/10/18 15:15:06;;;;;;;0.60;0.60;;;;;;;;;;4972735;28;20126;-44
2021/10/18 15:17:32;;;;;;;1.85;0.60;;;;;;;;;;4989881;28;20073;-43
2021/10/18 15:19:59;;;;;;;1.45;0.60;;;;;;;;;;4988213;28;20092;-43
2021/10/18 15:22:26;;;;;;;0.75;0.60;;;;;;;;;;4989563;28;20049;-43
2021/10/18 15:24:52;;;;;;;1.05;0.90;;;;;;;;;;4985154;28;20057;-45
2021/10/18 15:27:24;;;;;;;0.70;0.70;;;;;;;;;;4973267;28;20030;-44
2021/10/18 15:29:51;;;;;;;0.70;0.70;;;;;;;;;;4990280;28;20070;-44
2021/10/18 15:32:17;;;;;;;0.75;0.75;;;;;;;;;;4985610;28;20074;-43
2021/10/18 15:34:44;;;;;;;0.70;0.70;;;;;;;;;;4991849;28;20039;-45
2021/10/18 15:37:11;;;;;;;0.70;0.70;;;;;;;;;;4990151;28;20124;-44
2021/10/18 15:39:38;;;;;;;0.65;0.65;;;;;;;;;;4983813;28;20142;-45
2021/10/18 15:42:05;;;;;;;0.70;0.70;;;;;;;;;;4980817;28;20039;-43
2021/10/18 15:44:31;;;;;;;0.70;0.70;;;;;;;;;;4986849;28;20515;-47